Urb Isabel Ii, Puerto Rico
Current Conditions -  °F | °C
As of 12:53 AM on Wednesday 22 Oct 2014 (Local Time) from TJNR Reporting Station
Few Clouds Few Clouds  
Wind Chill: 80°   Ceiling: Unl
Heat Index: 84°   Visibility: 10mi
Dew Point: 71°   Wind: 5mph
Humidity: 74%   Direction: 80°E
Pressure: 29.99"   Gusts: NA
Location:  18.1015°N, 65.4768°W
Report Text: TJNR 220453Z AUTO 08004KT 10SM FEW075 27/22 A2999 RMK AO2 SLP155 T02670217
Loading
Personal Weather Stations






























Interactive Weather Map
Tropical Storm Tracking
New forecast layout! Learn more

10-Day Weather Forecast

Advertisements
Track Severe Weather on mobile